Flight Track Log - Related Links

Times and Time Zones

All times are in EST time to prevent confusion due to time zone crossing. See the AAL2345 flight status page for this flight to view local times or setup timezone preferences in your user account.

Time Position Orientation Groundspeed Altitude Reporting Facility
EST Latitude Longitude Course Direction KTS MPH feet Rate Location/Type
Fri 06:53:10 PM 41.9667 -87.9333 194° South 194 223 1,500  Level Chicago TRACON
Fri 06:54:11 PM 41.9333 -87.9833 228° Southwest 193 222 4,000 1,759 Climbing Chicago TRACON
Fri 06:55:00 PM 41.7599 -88.1671 198° South  Level Estimated
Fri 06:56:00 PM 41.6625 -88.1620 178° South  Level FlightAware Approximate
Fri 06:56:04 PM 41.8122 -87.9803 179° South 245 282 6,600  Level Chicago Center
Fri 06:57:00 PM 41.5896 -88.2486 207° Southwest  Level Estimated
Fri 06:57:06 PM 41.7389 -87.9750 177° South 263 303 9,300  Level Chicago Center
Fri 06:58:00 PM 41.5166 -88.3350 194° South  Level Estimated
Fri 06:58:08 PM 41.6597 -88.0228 204° Southwest 262 302 12,500  Level Chicago Center
Fri 06:59:10 PM 41.5872 -88.0686 205° Southwest 289 333 14,000 1,536 Climbing Chicago Center
Fri 07:00:13 PM 41.5022 -88.1206 205° Southwest 332 382 15,700 1,887 Climbing Chicago Center
Fri 07:01:14 PM 41.3953 -88.1833 204° Southwest 363 418 17,900 2,000 Climbing Chicago Center
Fri 07:02:16 PM 41.2964 -88.2289 199° South 382 440 19,800 1,824 Climbing Chicago Center
Fri 07:03:19 PM 41.1947 -88.2758 199° South 389 448 21,700 1,584 Climbing Chicago Center
Fri 07:04:21 PM 41.1125 -88.3625 218° Southwest 387 445 23,100 1,500 Climbing Chicago Center
Fri 07:05:23 PM 41.0289 -88.4578 221° Southwest 393 452 24,800 1,680 Climbing Chicago Center
Fri 07:06:26 PM 40.9247 -88.5675 219° Southwest 400 460 26,600 1,355 Climbing Chicago Center
Fri 07:07:27 PM 40.8364 -88.6628 219° Southwest 407 468 27,600 1,024 Climbing Chicago Center
Fri 07:08:29 PM 40.7447 -88.7586 218° Southwest 418 481 28,700 1,113 Climbing Chicago Center
Fri 07:09:31 PM 40.6578 -88.8497 218° Southwest 420 483 29,900 629 Climbing Chicago Center
Fri 07:10:33 PM 40.5681 -88.9425 218° Southwest 414 476 30,000 48 Climbing Chicago Center
Fri 07:11:35 PM 40.4603 -89.0544 218° Southwest 410 472 30,000  Level Chicago Center
Fri 07:12:37 PM 40.3717 -89.1481 219° Southwest 409 471 30,000  Level Chicago Center
Fri 07:13:40 PM 40.2789 -89.2450 219° Southwest 418 481 30,000  Level Chicago Center
Fri 07:14:42 PM 40.1881 -89.3389 218° Southwest 416 479 30,000  Level Chicago Center
Fri 07:15:27 PM 40.1172 -89.4144 219° Southwest 412 474 30,000  Level Kansas City Center
Fri 07:16:29 PM 40.0283 -89.5058 218° Southwest 408 470 30,000  Level Kansas City Center
Fri 07:17:31 PM 39.9406 -89.5961 218° Southwest 402 463 30,000  Level Kansas City Center
Fri 07:18:33 PM 39.8547 -89.6894 220° Southwest 401 461 30,000  Level Kansas City Center
Fri 07:19:35 PM 39.7811 -89.7936 227° Southwest 393 452 30,000  Level Kansas City Center
Fri 07:20:37 PM 39.6919 -89.9083 225° Southwest 392 451 30,000  Level Kansas City Center
Fri 07:21:39 PM 39.6164 -90.0092 226° Southwest 391 450 30,000  Level Kansas City Center
Fri 07:22:41 PM 39.5397 -90.1078 225° Southwest 391 450 30,000  Level Kansas City Center
Fri 07:23:43 PM 39.4644 -90.2067 225° Southwest 388 447 30,000  Level Kansas City Center
Fri 07:24:45 PM 39.3886 -90.3058 225° Southwest 389 448 30,000  Level Kansas City Center
Fri 07:25:47 PM 39.2967 -90.4239 225° Southwest 390 449 30,000  Level Kansas City Center
Fri 07:26:49 PM 39.2200 -90.5233 225° Southwest 392 451 30,000  Level Kansas City Center
Fri 07:27:51 PM 39.1431 -90.6211 225° Southwest 392 451 30,000  Level Kansas City Center
Fri 07:28:53 PM 39.0672 -90.7181 225° Southwest 389 448 30,000  Level Kansas City Center
Fri 07:29:55 PM 38.9914 -90.8147 225° Southwest 387 445 30,000  Level Kansas City Center
Fri 07:30:57 PM 38.9000 -90.9319 225° Southwest 390 449 30,000  Level Kansas City Center
Fri 07:31:59 PM 38.8239 -91.0283 225° Southwest 388 447 30,000  Level Kansas City Center
Fri 07:33:01 PM 38.7478 -91.1231 224° Southwest 386 444 30,000  Level Kansas City Center
Fri 07:34:03 PM 38.6728 -91.2194 225° Southwest 384 442 30,000  Level Kansas City Center
Fri 07:35:05 PM 38.5972 -91.3139 224° Southwest 383 441 30,000  Level Kansas City Center
Fri 07:36:07 PM 38.5100 -91.4211 224° Southwest 382 440 30,000  Level Kansas City Center
Fri 07:37:09 PM 38.4328 -91.5175 224° Southwest 384 442 30,000  Level Kansas City Center
Fri 07:38:11 PM 38.3558 -91.6125 224° Southwest 384 442 30,000  Level Kansas City Center
Fri 07:39:13 PM 38.2786 -91.7078 224° Southwest 384 442 30,000  Level Kansas City Center
Fri 07:40:15 PM 38.2017 -91.8028 224° Southwest 383 441 30,000  Level Kansas City Center
Fri 07:41:17 PM 38.1086 -91.9167 224° Southwest 383 441 30,000  Level Kansas City Center
Fri 07:42:19 PM 38.0319 -92.0094 224° Southwest 380 437 30,000  Level Kansas City Center
Fri 07:43:21 PM 37.9550 -92.1047 224° Southwest 385 443 30,000  Level Kansas City Center
Fri 07:44:23 PM 37.8783 -92.2008 225° Southwest 390 449 30,000  Level Kansas City Center
Fri 07:45:25 PM 37.7992 -92.2922 222° Southwest 388 447 30,000  Level Kansas City Center
Fri 07:46:27 PM 37.7211 -92.3892 225° Southwest 393 452 30,000  Level Kansas City Center
Fri 07:47:29 PM 37.6381 -92.4917 224° Southwest 388 447 30,000  Level Kansas City Center
Fri 07:48:31 PM 37.5586 -92.5858 223° Southwest 389 448 30,000 -242 Level Kansas City Center
Fri 07:49:33 PM 37.4800 -92.6808 224° Southwest 389 448 29,500 -774 Descending Kansas City Center
Fri 07:50:35 PM 37.3994 -92.7742 223° Southwest 391 450 28,400 -726 Descending Kansas City Center
Fri 07:51:37 PM 37.3022 -92.8867 223° Southwest 394 453 28,000 -194 Descending Kansas City Center
Fri 07:52:39 PM 37.2083 -92.9642 213° Southwest 408 470 28,000  Level Kansas City Center
Fri 07:53:41 PM 37.1078 -93.0344 209° Southwest 411 473 28,000  Level Kansas City Center
Fri 07:54:43 PM 37.0103 -93.1089 211° Southwest 410 472 28,000  Level Kansas City Center
Fri 07:55:45 PM 36.9119 -93.1783 209° Southwest 406 467 28,000  Level Kansas City Center
Fri 07:56:47 PM 36.8017 -93.2611 211° Southwest 409 471 28,000  Level Kansas City Center
Fri 07:57:49 PM 36.7033 -93.3283 209° Southwest 407 468 28,000  Level Kansas City Center
Fri 07:58:52 PM 36.6050 -93.4008 211° Southwest 410 472 28,000  Level Kansas City Center
Fri 07:59:54 PM 36.5067 -93.4758 212° Southwest 413 475 28,000  Level Kansas City Center
Fri 08:00:56 PM 36.4072 -93.5475 210° Southwest 415 478 28,000  Level Kansas City Center
Fri 08:01:58 PM 36.2889 -93.6333 210° Southwest 413 475 28,000  Level Kansas City Center
Fri 08:03:00 PM 36.1906 -93.7042 210° Southwest 412 474 28,000  Level Kansas City Center
Fri 08:04:02 PM 36.0925 -93.7739 210° Southwest 411 473 28,000  Level Kansas City Center
Fri 08:05:04 PM 35.9931 -93.8436 210° Southwest 411 473 28,000  Level Kansas City Center
Fri 08:06:06 PM 35.8947 -93.9144 210° Southwest 411 473 28,000  Level Kansas City Center
Fri 08:07:08 PM 35.7967 -93.9850 210° Southwest 411 473 28,000  Level Kansas City Center
Fri 08:08:11 PM 35.6694 -94.0778 211° Southwest 413 475 28,000  Level Memphis Center
Fri 08:09:11 PM 35.5694 -94.1422 208° Southwest 418 481 28,000  Level Memphis Center
Fri 08:10:11 PM 35.4672 -94.2139 210° Southwest 413 475 28,000  Level Memphis Center
Fri 08:11:11 PM 35.3731 -94.2861 212° Southwest 413 475 28,000  Level Memphis Center
Fri 08:13:27 PM 35.1886 -94.4922 222° Southwest 394 453 28,000 -184 Level Fort Worth Center
Fri 08:14:27 PM 35.1053 -94.5814 221° Southwest 394 453 27,400 -750 Descending Fort Worth Center
Fri 08:15:27 PM 35.0219 -94.6756 223° Southwest 401 461 26,500 -950 Descending Fort Worth Center
Fri 08:16:27 PM 34.9383 -94.7667 222° Southwest 407 468 25,500 -1,050 Descending Fort Worth Center
Fri 08:17:27 PM 34.8525 -94.8556 220° Southwest 407 468 24,400 -750 Descending Fort Worth Center
Fri 08:18:27 PM 34.7514 -94.9039 201° Southwest 389 448 24,000 -200 Descending Fort Worth Center
Fri 08:19:27 PM 34.6403 -94.8819 171° South 412 474 24,000  Level Fort Worth Center
Fri 08:20:27 PM 34.5250 -94.8500 167° South 421 484 24,000  Level Fort Worth Center
Fri 08:21:27 PM 34.4278 -94.8000 157° South 398 458 24,000  Level Fort Worth Center
Fri 08:22:27 PM 34.3333 -94.7678 164° South 378 435 24,000  Level Fort Worth Center
Fri 08:23:27 PM 34.2511 -94.8231 209° Southwest 324 373 24,000  Level Fort Worth Center
Fri 08:24:27 PM 34.2050 -94.9197 240° Southwest 302 348 24,000  Level Fort Worth Center
Fri 08:25:27 PM 34.1467 -95.0369 239° Southwest 333 383 24,000  Level Fort Worth Center
Fri 08:26:27 PM 34.0883 -95.1489 238° Southwest 365 420 24,000  Level Fort Worth Center
Fri 08:27:27 PM 34.0339 -95.2606 240° Southwest 394 453 24,000  Level Fort Worth Center
Fri 08:28:27 PM 33.9794 -95.3747 240° Southwest 399 459 24,000 -100 Level Fort Worth Center
Fri 08:29:27 PM 33.9206 -95.4836 237° Southwest 399 459 23,800 -850 Descending Fort Worth Center
Fri 08:30:27 PM 33.8597 -95.5900 235° Southwest 394 453 22,300 -1,700 Descending Fort Worth Center
Fri 08:31:27 PM 33.7986 -95.6939 235° Southwest 394 453 20,400 -1,950 Descending Fort Worth Center
Fri 08:32:27 PM 33.7394 -95.8025 237° Southwest 394 453 18,400 -1,900 Descending Fort Worth Center
Fri 08:33:27 PM 33.6842 -95.9008 236° Southwest 381 438 16,600 -1,900 Descending Fort Worth Center
Fri 08:34:27 PM 33.6269 -96.0014 236° Southwest 375 432 14,600 -1,750 Descending Fort Worth Center
Fri 08:35:27 PM 33.5758 -96.0894 235° Southwest 375 432 13,100 -1,450 Descending Fort Worth Center
Fri 08:36:27 PM 33.5164 -96.1925 235° Southwest 357 411 11,700 -1,050 Descending Fort Worth Center
Fri 08:37:27 PM 33.4711 -96.2731 236° Southwest 347 399 11,000 -350 Descending Fort Worth Center
Fri 08:38:27 PM 33.4178 -96.3681 236° Southwest 329 379 11,000 -200 Level Fort Worth Center
Fri 08:39:27 PM 33.3744 -96.4308 230° Southwest 297 342 10,600 -894 Descending Fort Worth Center
Fri 08:40:01 PM 33.3500 -96.4833 241° Southwest 271 312 9,600 -1,618 Descending Dallas / Fort Worth TRACON
Fri 08:40:56 PM 33.3333 -96.5667 257° West 265 305 8,200 -1,409 Descending Dallas / Fort Worth TRACON
Fri 08:41:56 PM 33.2833 -96.6333 228° Southwest 257 296 6,900 -1,385 Descending Dallas / Fort Worth TRACON
Fri 08:42:27 PM 33.2653 -96.6656 236° Southwest 263 303 6,100 -1,253 Descending Fort Worth Center
Fri 08:43:27 PM 33.2261 -96.7331 235° Southwest 258 297 5,000 -550 Descending Fort Worth Center
Fri 08:44:27 PM 33.1867 -96.7953 233° Southwest 247 284 5,000 -300 Level Fort Worth Center
Fri 08:45:27 PM 33.1475 -96.8603 234° Southwest 247 284 4,400 -950 Descending Fort Worth Center
Fri 08:46:27 PM 33.1058 -96.9250 232° Southwest 247 284 3,100 -700 Descending Fort Worth Center
Fri 08:47:27 PM 33.0747 -96.9747 233° Southwest 227 261 3,000 -150 Descending Fort Worth Center
Fri 08:48:27 PM 33.0311 -97.0169 219° Southwest 193 222 2,800 -500 Descending Fort Worth Center
Fri 08:49:27 PM 32.9936 -97.0247 190° South 167 192 2,000 -700 Descending Fort Worth Center
Fri 08:50:27 PM 32.9600 -97.0272 184° South 139 160 1,400 -600 Descending Fort Worth Center

Login

Don't have an account? Register now (free) for customized features, flight alerts, and more!